Time;durP1;ratioP1;P1;durP2;ratioP2;P2;SDS_P1;SDS_P2;PMS_P1;PMS_P2;Temp;Humidity;BMP_temperature;BMP_pressure;BME280_temperature;BME280_humidity;BME280_pressure;Samples;Min_cycle;Max_cycle;Signal;HPM_P1;HPM_P2
2021/06/05 00:00:38;;;;;;;21.05;4.58;;;;;;;11.84;97.34;100957.02;1719460;83;22256;-38
2021/06/05 00:03:05;;;;;;;27.73;4.92;;;;;;;11.88;97.64;100959.13;1716325;82;21661;-40
2021/06/05 00:05:36;;;;;;;22.67;4.62;;;;;;;11.87;97.71;100955.70;1705953;83;20949;-38
2021/06/05 00:08:04;;;;;;;23.10;4.50;;;;;;;11.86;97.77;100953.95;1706040;83;21526;-38
2021/06/05 00:10:35;;;;;;;22.93;6.12;;;;;;;11.83;97.83;100950.58;1705880;84;20921;-40
2021/06/05 00:13:05;;;;;;;22.27;6.17;;;;;;;11.79;98.04;100946.73;1706020;84;20988;-39
2021/06/05 00:15:38;;;;;;;62.38;7.72;;;;;;;11.76;98.05;100942.90;1705848;83;21518;-41
2021/06/05 00:18:07;;;;;;;88.03;9.05;;;;;;;11.73;98.13;100941.63;1705774;84;21000;-41
2021/06/05 00:20:34;;;;;;;64.97;7.90;;;;;;;11.71;98.22;100939.50;1705997;84;21113;-39
2021/06/05 00:23:03;;;;;;;68.37;6.72;;;;;;;11.69;98.22;100936.07;1705863;83;20983;-38
2021/06/05 00:25:30;;;;;;;111.50;9.35;;;;;;;11.66;98.35;100936.58;1705795;84;20944;-39
2021/06/05 00:27:57;;;;;;;22.80;4.58;;;;;;;11.63;98.34;100942.66;1705800;84;21462;-37
2021/06/05 00:30:26;;;;;;;38.78;5.30;;;;;;;11.60;98.26;100938.81;1705796;84;20972;-40
2021/06/05 00:32:53;;;;;;;34.85;5.42;;;;;;;11.59;98.50;100939.23;1705923;84;21141;-41
2021/06/05 00:35:20;;;;;;;27.90;5.10;;;;;;;11.59;98.57;100935.81;1705924;83;20972;-39
2021/06/05 00:37:48;;;;;;;19.25;4.28;;;;;;;11.59;98.67;100936.64;1705952;84;21019;-38
2021/06/05 00:40:16;;;;;;;29.57;4.80;;;;;;;11.58;98.75;100939.28;1706044;82;20992;-40
2021/06/05 00:42:42;;;;;;;15.13;4.05;;;;;;;11.56;98.77;100934.56;1705898;84;21028;-39
2021/06/05 00:45:11;;;;;;;98.80;9.85;;;;;;;11.53;98.81;100931.56;1705747;83;21153;-40
2021/06/05 00:47:39;;;;;;;29.72;5.12;;;;;;;11.48;98.78;100922.55;1705976;84;21585;-40
2021/06/05 00:50:08;;;;;;;26.37;5.03;;;;;;;11.45;98.78;100923.05;1705756;83;21019;-39
2021/06/05 00:52:36;;;;;;;23.38;3.98;;;;;;;11.41;98.79;100922.23;1685206;84;21020;-37
2021/06/05 00:55:06;;;;;;;19.32;5.62;;;;;;;11.38;98.78;100921.44;1705851;84;21012;-37
2021/06/05 00:57:33;;;;;;;39.10;6.05;;;;;;;11.32;98.87;100924.97;1706110;83;21126;-37
2021/06/05 01:00:01;;;;;;;16.17;4.25;;;;;;;11.28;98.96;100918.95;1705792;84;20953;-37
2021/06/05 01:02:28;;;;;;;9.38;4.35;;;;;;;11.27;99.04;100915.11;1705689;83;20972;-38
2021/06/05 01:04:55;;;;;;;11.97;3.70;;;;;;;11.27;99.20;100922.88;1711824;83;21044;-38
2021/06/05 01:07:26;;;;;;;19.62;3.98;;;;;;;11.24;99.24;100921.17;1713666;83;21024;-38
2021/06/05 01:10:11;;;;;;;9.33;3.70;;;;;;;11.20;99.24;100917.76;1713720;83;21172;-38
2021/06/05 01:13:12;;;;;;;19.80;4.30;;;;;;;11.16;99.25;100922.56;1699966;83;21549;-39
2021/06/05 01:15:56;;;;;;;24.12;5.10;;;;;;;11.11;99.38;100924.80;1713754;83;22679;-38
2021/06/05 01:19:28;;;;;;;17.85;4.33;;;;;;;11.09;99.53;100912.30;1797660;79;23071;-39
2021/06/05 01:22:23;;;;;;;;;;;;;;;11.02;99.57;100917.57;1760022;80;21093;-40
2021/06/05 01:25:25;;;;;;;23.75;5.08;;;;;;;10.97;99.54;100912.89;1753473;80;21988;-38
2021/06/05 01:28:15;;;;;;;17.57;4.65;;;;;;;10.93;99.65;100917.70;1748349;82;20991;-36
2021/06/05 01:30:46;;;;;;;16.93;4.20;;;;;;;10.95;100.00;100918.95;1749182;82;20972;-38
2021/06/05 01:33:14;;;;;;;28.12;5.03;;;;;;;10.95;100.00;100925.02;1748626;82;21604;-40
2021/06/05 01:35:42;;;;;;;13.38;3.70;;;;;;;10.94;100.00;100923.30;1749288;80;20963;-38
2021/06/05 01:38:11;;;;;;;18.77;4.12;;;;;;;10.98;100.00;100920.21;1748998;82;21166;-40
2021/06/05 01:40:41;;;;;;;25.00;5.20;;;;;;;11.02;100.00;100916.73;1720402;82;20988;-38
2021/06/05 01:43:09;;;;;;;37.45;5.62;;;;;;;11.04;100.00;100918.86;1749061;82;20897;-37
2021/06/05 01:45:40;;;;;;;70.45;7.70;;;;;;;11.05;100.00;100916.69;1749052;82;20944;-37
2021/06/05 01:48:10;;;;;;;52.45;7.37;;;;;;;11.07;100.00;100913.63;1749036;80;20964;-39
2021/06/05 01:50:41;;;;;;;73.12;8.13;;;;;;;11.07;100.00;100918.81;1749324;82;21056;-39
2021/06/05 01:53:26;;;;;;;29.95;4.90;;;;;;;11.08;100.00;100912.75;1748886;81;21011;-40
2021/06/05 01:55:58;;;;;;;51.28;6.60;;;;;;;11.12;100.00;100917.47;1749321;82;20933;-39
2021/06/05 01:58:28;;;;;;;61.02;7.35;;;;;;;11.17;100.00;100914.38;1719417;82;20984;-40
2021/06/05 02:00:59;;;;;;;79.87;8.03;;;;;;;11.21;100.00;100913.45;1747226;82;20968;-41
2021/06/05 02:03:28;;;;;;;116.03;11.03;;;;;;;11.25;100.00;100919.00;1748830;82;21115;-40
2021/06/05 02:05:57;;;;;;;70.83;8.65;;;;;;;11.28;100.00;100921.55;1746302;82;22254;-38
2021/06/05 02:08:26;;;;;;;65.10;8.35;;;;;;;11.30;100.00;100916.36;1749168;82;20908;-40
2021/06/05 02:10:57;;;;;;;99.90;10.28;;;;;;;11.32;100.00;100914.59;1749375;82;20889;-39
2021/06/05 02:13:28;;;;;;;112.68;9.85;;;;;;;11.33;100.00;100917.60;1749041;81;20952;-39
2021/06/05 02:16:06;;;;;;;74.87;9.23;;;;;;;11.32;100.00;100916.73;1747748;82;20948;-39
2021/06/05 02:18:35;;;;;;;75.35;10.15;;;;;;;11.33;100.00;100921.49;1740205;81;21075;-40
2021/06/05 02:21:11;;;;;;;68.30;9.70;;;;;;;11.32;99.95;100918.03;1735621;82;20933;-40
2021/06/05 02:24:03;;;;;;;51.60;8.73;;;;;;;11.33;99.76;100912.42;1735574;82;20976;-39
2021/06/05 02:26:31;;;;;;;73.78;8.70;;;;;;;11.35;99.52;100916.69;1714961;82;20980;-39
2021/06/05 02:28:58;;;;;;;29.25;5.15;;;;;;;11.40;99.30;100915.79;1714965;82;21147;-38
2021/06/05 02:31:26;;;;;;;65.57;7.33;;;;;;;11.46;99.19;100920.88;1714483;82;20937;-40
2021/06/05 02:33:55;;;;;;;49.90;7.17;;;;;;;11.57;99.21;100916.83;1735393;82;20945;-40
2021/06/05 02:36:22;;;;;;;18.32;4.30;;;;;;;11.65;99.12;100921.45;1735307;82;21183;-38
2021/06/05 02:38:50;;;;;;;13.98;4.12;;;;;;;11.72;98.97;100919.63;1735372;82;20992;-38
2021/06/05 02:41:20;;;;;;;14.30;3.60;;;;;;;11.77;98.79;100927.75;1735165;82;21148;-38
2021/06/05 02:43:53;;;;;;;16.52;3.90;;;;;;;11.86;98.67;100920.70;1735243;82;20921;-39
2021/06/05 02:46:24;;;;;;;11.15;3.72;;;;;;;11.93;98.36;100918.41;1714366;82;21008;-39
2021/06/05 02:49:03;;;;;;;12.75;3.67;;;;;;;11.98;97.83;100919.63;1735293;82;21502;-40
2021/06/05 02:51:37;;;;;;;16.93;3.85;;;;;;;12.05;97.29;100919.55;1734942;82;20925;-40
2021/06/05 02:54:05;;;;;;;13.78;3.75;;;;;;;12.12;96.84;100914.23;1735433;82;21118;-38
2021/06/05 02:56:33;;;;;;;14.43;3.92;;;;;;;12.19;96.38;100919.30;1735151;82;20988;-39
2021/06/05 02:59:00;;;;;;;11.28;3.90;;;;;;;12.28;95.97;100917.41;1714514;82;20909;-37
2021/06/05 03:01:29;;;;;;;17.82;4.50;;;;;;;12.34;95.51;100922.05;1734963;81;21443;-40
2021/06/05 03:04:00;;;;;;;17.35;4.78;;;;;;;12.40;95.16;100921.52;1735287;82;20874;-38
2021/06/05 03:06:30;;;;;;;10.10;3.65;;;;;;;12.47;94.65;100912.73;1735429;82;21192;-39
2021/06/05 03:08:58;;;;;;;14.78;4.00;;;;;;;12.54;93.89;100919.97;1735397;82;21443;-39
2021/06/05 03:11:27;;;;;;;18.37;2.85;;;;;;;12.62;93.41;100924.13;1735292;82;20980;-39
2021/06/05 03:13:56;;;;;;;14.00;3.83;;;;;;;12.69;92.92;100922.70;1735225;82;20945;-39
2021/06/05 03:16:22;;;;;;;13.98;4.10;;;;;;;12.75;92.42;100918.67;1735434;82;21043;-38
2021/06/05 03:18:51;;;;;;;18.92;4.30;;;;;;;12.80;91.73;100915.56;1743599;81;21345;-39
2021/06/05 03:21:19;;;;;;;8.80;3.90;;;;;;;12.87;91.24;100911.95;1749153;82;21015;-38
2021/06/05 03:23:48;;;;;;;14.28;3.92;;;;;;;12.94;89.88;100925.22;1749156;80;21506;-37
2021/06/05 03:26:18;;;;;;;9.78;4.03;;;;;;;13.02;89.18;100925.05;1749178;82;20969;-39
2021/06/05 03:28:46;;;;;;;9.13;4.30;;;;;;;13.12;89.04;100928.75;1722281;82;21027;-39
2021/06/05 03:31:14;;;;;;;31.37;4.22;;;;;;;13.19;88.32;100919.95;1749413;82;21109;-39
2021/06/05 03:33:42;;;;;;;11.22;3.62;;;;;;;13.28;87.50;100924.09;1749118;82;20936;-38
2021/06/05 03:36:09;;;;;;;20.02;3.65;;;;;;;13.36;86.48;100922.17;1749557;82;20985;-37
2021/06/05 03:38:38;;;;;;;14.33;3.47;;;;;;;13.46;86.11;100922.39;1749266;81;20991;-39
2021/06/05 03:41:05;;;;;;;18.23;4.17;;;;;;;13.57;84.61;100925.20;1749308;82;20933;-39
2021/06/05 03:43:32;;;;;;;16.35;3.87;;;;;;;13.66;83.38;100926.27;1749183;82;22327;-39
2021/06/05 03:45:59;;;;;;;13.88;3.10;;;;;;;13.75;82.08;100922.14;1749402;80;21447;-40
2021/06/05 03:48:28;;;;;;;14.15;4.25;;;;;;;13.86;81.39;100920.58;1749344;82;21651;-39
2021/06/05 03:50:56;;;;;;;17.50;4.00;;;;;;;13.94;80.87;100913.89;1749318;81;21509;-39
2021/06/05 03:53:25;;;;;;;12.15;3.37;;;;;;;14.03;79.90;100911.07;1749214;82;20932;-39
2021/06/05 03:55:52;;;;;;;12.07;3.50;;;;;;;14.11;77.24;100910.02;1749439;80;21100;-39
2021/06/05 03:58:29;;;;;;;31.70;3.90;;;;;;;14.20;76.90;100913.23;1749146;82;22165;-38
2021/06/05 04:00:58;;;;;;;26.35;4.03;;;;;;;14.30;76.67;100910.38;1749461;81;21014;-41
2021/06/05 04:03:25;;;;;;;22.77;3.98;;;;;;;14.37;76.17;100903.66;1749242;82;21003;-38
2021/06/05 04:05:51;;;;;;;22.30;3.50;;;;;;;14.44;75.05;100898.28;1749314;82;20936;-39
2021/06/05 04:08:18;;;;;;;17.15;4.30;;;;;;;14.54;75.38;100904.95;1749272;82;21146;-39
2021/06/05 04:10:45;;;;;;;21.05;4.42;;;;;;;14.65;74.88;100896.38;1749162;81;20980;-41
2021/06/05 04:13:13;;;;;;;32.03;4.15;;;;;;;14.78;75.53;100896.08;1749211;81;21042;-40
2021/06/05 04:15:39;;;;;;;21.00;3.80;;;;;;;14.93;74.69;100898.67;1749264;81;20928;-40
2021/06/05 04:18:17;;;;;;;18.90;3.52;;;;;;;15.04;74.19;100895.28;1746784;80;21015;-41
2021/06/05 04:20:45;;;;;;;17.80;3.40;;;;;;;15.19;74.21;100891.82;1735185;82;20936;-39
2021/06/05 04:23:12;;;;;;;21.33;3.90;;;;;;;15.27;72.56;100888.95;1735508;82;21514;-41
2021/06/05 04:25:41;;;;;;;9.60;3.25;;;;;;;15.40;71.76;100888.11;1735182;81;21517;-40
2021/06/05 04:28:09;;;;;;;20.32;3.30;;;;;;;15.59;71.07;100891.84;1735219;82;21593;-41
2021/06/05 04:30:36;;;;;;;13.90;2.65;;;;;;;15.93;69.86;100884.69;1735304;82;20972;-40
2021/06/05 04:33:04;;;;;;;18.75;3.02;;;;;;;16.28;68.94;100881.76;1735442;82;21800;-39
2021/06/05 04:35:30;;;;;;;6.35;2.65;;;;;;;16.53;67.83;100879.09;1735160;82;20894;-40
2021/06/05 04:37:57;;;;;;;10.60;2.58;;;;;;;16.74;66.12;100875.29;1735372;82;21440;-41
2021/06/05 04:40:25;;;;;;;16.07;3.20;;;;;;;16.94;65.48;100879.31;1735217;82;21072;-41
2021/06/05 04:42:51;;;;;;;12.58;2.75;;;;;;;17.24;65.48;100880.36;1735513;82;21455;-40
2021/06/05 04:45:18;;;;;;;6.97;3.30;;;;;;;17.44;64.06;100882.64;1735186;82;21726;-40
2021/06/05 04:47:45;;;;;;;14.68;3.42;;;;;;;17.56;62.70;100881.29;1735279;82;20932;-41
2021/06/05 04:50:16;;;;;;;13.95;2.92;;;;;;;17.60;62.77;100882.03;1735109;82;21015;-41
2021/06/05 04:52:42;;;;;;;12.50;3.40;;;;;;;17.71;63.46;100871.95;1735499;81;21020;-41
2021/06/05 04:55:11;;;;;;;8.53;2.67;;;;;;;17.85;61.24;100870.53;1735186;82;20964;-40
2021/06/05 04:57:38;;;;;;;10.60;3.40;;;;;;;17.93;62.15;100873.66;1735378;82;21069;-41
2021/06/05 05:00:10;;;;;;;14.80;3.60;;;;;;;18.10;61.36;100876.89;1735169;81;20975;-40
2021/06/05 05:02:37;;;;;;;11.75;3.35;;;;;;;18.24;60.48;100870.60;1735433;82;20980;-41
2021/06/05 05:05:05;;;;;;;18.07;3.60;;;;;;;18.41;60.00;100866.84;1735199;82;20968;-39
2021/06/05 05:07:32;;;;;;;16.02;2.87;;;;;;;18.53;59.68;100862.33;1735246;82;20956;-39
2021/06/05 05:09:59;;;;;;;13.40;3.37;;;;;;;18.85;59.32;100861.78;1735239;82;22349;-41
2021/06/05 05:12:26;;;;;;;13.75;3.08;;;;;;;19.11;59.05;100863.21;1735175;82;21483;-40
2021/06/05 05:14:55;;;;;;;16.65;2.85;;;;;;;19.21;57.19;100857.90;1735293;82;20918;-41
2021/06/05 05:17:23;;;;;;;8.75;2.90;;;;;;;19.32;57.58;100859.14;1735247;82;21007;-40
2021/06/05 05:19:51;;;;;;;13.28;2.95;;;;;;;19.46;56.95;100860.63;1741175;81;20936;-41
2021/06/05 05:22:18;;;;;;;12.05;3.00;;;;;;;19.44;56.82;100858.55;1690481;82;21205;-41
2021/06/05 05:24:45;;;;;;;16.32;3.33;;;;;;;19.26;56.30;100856.38;1743312;82;20937;-38
2021/06/05 05:27:13;;;;;;;9.15;2.85;;;;;;;19.12;57.31;100853.11;1743313;82;20920;-39
2021/06/05 05:29:41;;;;;;;8.28;2.35;;;;;;;19.00;56.81;100857.61;1743299;82;21012;-41
2021/06/05 05:32:09;;;;;;;9.58;2.58;;;;;;;18.87;57.15;100859.93;1743205;81;20925;-41
2021/06/05 05:34:36;;;;;;;12.63;2.45;;;;;;;18.67;56.62;100859.08;1743326;82;21098;-38
2021/06/05 05:37:04;;;;;;;40.98;3.22;;;;;;;18.55;58.16;100856.56;1743342;82;20929;-40
2021/06/05 05:39:31;;;;;;;17.23;2.62;;;;;;;18.75;59.87;100853.48;1743316;82;21057;-38
2021/06/05 05:41:57;;;;;;;12.95;2.65;;;;;;;19.14;58.66;100851.70;1743378;81;21020;-39
2021/06/05 05:44:24;;;;;;;8.10;2.40;;;;;;;19.45;58.19;100846.26;1743393;82;20995;-40
2021/06/05 05:46:50;;;;;;;9.85;2.35;;;;;;;19.78;57.68;100841.09;1743403;81;21130;-40
2021/06/05 05:49:18;;;;;;;11.80;2.80;;;;;;;19.90;56.33;100840.92;1743351;82;20925;-39
2021/06/05 05:51:45;;;;;;;16.10;2.67;;;;;;;20.00;56.48;100841.81;1743355;81;20933;-40
2021/06/05 05:54:11;;;;;;;4.45;2.10;;;;;;;19.93;55.27;100837.33;1743350;82;20972;-38
2021/06/05 05:56:40;;;;;;;16.15;3.27;;;;;;;19.87;54.69;100838.94;1743480;82;20932;-40
2021/06/05 05:59:06;;;;;;;11.18;2.40;;;;;;;19.88;55.65;100834.06;1743528;82;21783;-39
2021/06/05 06:01:33;;;;;;;13.53;2.75;;;;;;;19.91;55.87;100833.94;1743607;81;21521;-41
2021/06/05 06:03:59;;;;;;;11.83;2.05;;;;;;;20.12;56.72;100825.39;1743528;82;21593;-39
2021/06/05 06:06:27;;;;;;;12.47;2.10;;;;;;;20.42;56.48;100817.27;1743596;82;20996;-40
2021/06/05 06:08:54;;;;;;;9.15;2.58;;;;;;;20.59;54.71;100819.83;1743544;81;20985;-41
2021/06/05 06:11:22;;;;;;;11.75;2.02;;;;;;;20.45;53.62;100815.78;1743430;81;21993;-38
2021/06/05 06:13:49;;;;;;;4.78;2.20;;;;;;;20.34;54.14;100818.54;1743273;82;21469;-39
2021/06/05 06:16:16;;;;;;;6.20;2.10;;;;;;;20.32;54.69;100819.06;1743435;81;21455;-39
2021/06/05 06:18:43;;;;;;;18.10;2.65;;;;;;;20.44;53.13;100818.03;1742313;82;21697;-40
2021/06/05 06:21:11;;;;;;;7.05;2.20;;;;;;;20.56;52.81;100817.83;1735534;82;21047;-40
2021/06/05 06:23:40;;;;;;;10.18;2.10;;;;;;;20.64;52.81;100811.22;1735340;82;21128;-41
2021/06/05 06:26:13;;;;;;;9.90;1.87;;;;;;;20.74;51.63;100811.56;1735078;82;20992;-40
2021/06/05 06:28:41;;;;;;;10.15;1.98;;;;;;;20.87;52.62;100810.44;1735433;82;20980;-41
2021/06/05 06:31:10;;;;;;;8.20;1.75;;;;;;;21.32;52.40;100809.65;1735230;82;21427;-41
2021/06/05 06:33:37;;;;;;;6.58;1.30;;;;;;;21.68;51.24;100806.66;1735424;82;20945;-39
2021/06/05 06:36:04;;;;;;;6.20;1.30;;;;;;;21.84;48.19;100806.20;1735301;82;21093;-41
2021/06/05 06:38:36;;;;;;;7.95;1.35;;;;;;;21.77;45.95;100810.53;1735261;82;21459;-39
2021/06/05 06:41:08;;;;;;;11.38;1.07;;;;;;;21.31;47.51;100812.77;1735281;82;21023;-41
2021/06/05 06:43:35;;;;;;;9.93;1.30;;;;;;;21.06;48.22;100803.66;1735424;82;21079;-40
2021/06/05 06:46:08;;;;;;;6.37;1.60;;;;;;;20.83;46.30;100799.68;1735263;82;21092;-39
2021/06/05 06:48:35;;;;;;;15.72;1.10;;;;;;;20.59;48.06;100804.06;1735191;82;21107;-39
2021/06/05 06:51:03;;;;;;;12.80;1.60;;;;;;;20.64;48.72;100803.33;1735314;82;21510;-41
2021/06/05 06:53:32;;;;;;;6.62;1.20;;;;;;;20.85;49.01;100796.53;1735581;81;21587;-40
2021/06/05 06:55:58;;;;;;;7.70;1.20;;;;;;;21.00;46.39;100793.94;1735400;82;20940;-41
2021/06/05 06:58:25;;;;;;;4.67;1.15;;;;;;;21.04;45.85;100787.56;1735342;82;20941;-40
2021/06/05 07:00:51;;;;;;;8.08;1.30;;;;;;;20.99;48.18;100794.88;1735308;81;21213;-39
2021/06/05 07:03:18;;;;;;;2.30;1.10;;;;;;;21.29;47.21;100797.98;1735226;82;21013;-41
2021/06/05 07:05:45;;;;;;;5.33;1.40;;;;;;;21.61;46.02;100796.58;1735346;82;20933;-39
2021/06/05 07:08:19;;;;;;;14.28;1.02;;;;;;;21.78;44.32;100785.88;1735346;82;21044;-39
2021/06/05 07:10:51;;;;;;;6.78;1.17;;;;;;;21.70;43.83;100797.36;1735336;82;20964;-40
2021/06/05 07:13:18;;;;;;;9.60;1.05;;;;;;;21.72;43.66;100786.27;1735482;82;21180;-41
2021/06/05 07:15:44;;;;;;;4.50;1.15;;;;;;;21.80;43.99;100789.27;1735245;82;20917;-39
2021/06/05 07:18:13;;;;;;;2.83;1.10;;;;;;;21.67;43.89;100785.70;1735291;81;20999;-39
2021/06/05 07:20:44;;;;;;;9.63;1.25;;;;;;;21.46;42.79;100786.46;1746531;81;20976;-40
2021/06/05 07:23:10;;;;;;;5.08;1.10;;;;;;;21.23;45.02;100787.38;1749257;81;20987;-41
2021/06/05 07:25:38;;;;;;;8.15;1.22;;;;;;;21.18;44.87;100781.05;1749212;81;21007;-41
2021/06/05 07:28:16;;;;;;;2.35;1.02;;;;;;;21.20;43.63;100784.89;1749137;81;20960;-39
2021/06/05 07:30:43;;;;;;;8.85;1.35;;;;;;;21.13;44.25;100783.56;1748742;82;20984;-41
2021/06/05 07:33:10;;;;;;;2.02;1.20;;;;;;;21.25;44.10;100778.91;1749284;82;20916;-39
2021/06/05 07:35:38;;;;;;;6.40;0.90;;;;;;;21.35;44.83;100778.73;1749286;81;21007;-39
2021/06/05 07:38:06;;;;;;;4.42;1.17;;;;;;;21.56;43.74;100782.36;1749328;82;21167;-39
2021/06/05 07:40:33;;;;;;;3.62;0.90;;;;;;;21.84;45.86;100772.81;1749273;81;21577;-40
2021/06/05 07:43:02;;;;;;;5.33;1.25;;;;;;;21.89;41.67;100773.87;1749319;81;20936;-41
2021/06/05 07:45:28;;;;;;;6.72;1.10;;;;;;;21.71;42.46;100774.49;1749192;82;20967;-40
2021/06/05 07:47:55;;;;;;;10.90;1.20;;;;;;;21.71;43.22;100774.49;1749316;81;21007;-40
2021/06/05 07:50:22;;;;;;;4.15;1.00;;;;;;;21.69;43.64;100773.28;1749309;81;21926;-41
2021/06/05 07:52:49;;;;;;;2.65;0.85;;;;;;;21.90;42.10;100763.70;1749227;82;21470;-41
2021/06/05 07:55:15;;;;;;;2.83;0.72;;;;;;;22.13;43.46;100759.63;1749256;82;21549;-41
2021/06/05 07:57:42;;;;;;;8.78;0.90;;;;;;;22.21;41.54;100761.30;1749308;82;21037;-41
2021/06/05 08:00:14;;;;;;;6.42;1.02;;;;;;;22.13;42.82;100753.52;1749109;81;20963;-39
2021/06/05 08:02:41;;;;;;;2.95;1.30;;;;;;;22.32;43.95;100755.84;1721535;82;21128;-41
2021/06/05 08:05:10;;;;;;;3.33;1.15;;;;;;;22.62;41.71;100754.39;1749121;82;20940;-41
2021/06/05 08:07:38;;;;;;;6.72;0.88;;;;;;;22.76;41.10;100753.95;1749280;81;21023;-39
2021/06/05 08:10:07;;;;;;;5.90;1.35;;;;;;;23.00;39.80;100756.78;1749249;82;20917;-41
2021/06/05 08:12:35;;;;;;;4.30;1.20;;;;;;;22.96;41.04;100751.30;1749137;81;20975;-40
2021/06/05 08:15:05;;;;;;;2.15;1.00;;;;;;;23.02;39.46;100742.14;1749109;82;21094;-39
2021/06/05 08:17:34;;;;;;;4.30;1.15;;;;;;;22.85;40.68;100742.78;1749329;81;20968;-41
2021/06/05 08:20:03;;;;;;;8.18;1.00;;;;;;;22.96;40.70;100740.75;1749015;82;20921;-40
2021/06/05 08:22:30;;;;;;;4.47;0.90;;;;;;;23.25;40.72;100736.69;1749089;81;20928;-41
2021/06/05 08:24:56;;;;;;;5.20;1.20;;;;;;;23.55;40.54;100731.58;1749159;82;20984;-39
2021/06/05 08:27:25;;;;;;;2.92;0.90;;;;;;;23.48;39.79;100732.47;1721577;82;21148;-41
2021/06/05 08:29:53;;;;;;;9.90;1.02;;;;;;;23.52;38.73;100729.98;1749076;82;20972;-40
2021/06/05 08:32:21;;;;;;;8.28;1.32;;;;;;;23.53;40.19;100729.02;1749233;82;21014;-40
2021/06/05 08:34:47;;;;;;;8.98;1.22;;;;;;;23.65;36.66;100719.89;1749249;82;20999;-41
2021/06/05 08:37:14;;;;;;;7.20;1.00;;;;;;;23.43;38.90;100725.34;1749231;80;20964;-41
2021/06/05 08:39:40;;;;;;;5.40;0.90;;;;;;;23.63;39.83;100722.63;1749181;82;21131;-40
2021/06/05 08:42:10;;;;;;;3.67;0.90;;;;;;;23.86;38.00;100723.28;1748999;82;21012;-40
2021/06/05 08:44:38;;;;;;;1.15;1.05;;;;;;;23.86;37.54;100712.25;1749173;81;21028;-41
2021/06/05 08:47:10;;;;;;;10.90;1.12;;;;;;;23.80;38.26;100722.77;1749155;82;20921;-40
2021/06/05 08:49:42;;;;;;;6.50;1.30;;;;;;;23.71;40.54;100714.64;1749251;82;20925;-41
2021/06/05 08:52:41;;;;;;;20.52;1.77;;;;;;;23.59;42.65;100715.88;1749421;81;21054;-40
2021/06/05 08:55:31;;;;;;;9.25;1.60;;;;;;;23.83;42.43;100706.69;1721427;82;20963;-41
2021/06/05 08:58:29;;;;;;;5.15;1.25;;;;;;;23.72;41.33;100703.98;1749190;82;20925;-41
2021/06/05 09:01:19;;;;;;;8.18;1.52;;;;;;;23.23;42.69;100701.56;1749355;82;20960;-41
2021/06/05 09:03:50;;;;;;;4.95;1.07;;;;;;;23.17;43.54;100700.67;1749111;82;20944;-42
2021/06/05 09:06:41;;;;;;;7.92;1.55;;;;;;;23.37;42.64;100696.72;1749470;82;21946;-41
2021/06/05 09:09:10;;;;;;;11.53;1.65;;;;;;;23.41;41.78;100701.30;1749108;81;20888;-39
2021/06/05 09:11:36;;;;;;;12.20;1.62;;;;;;;23.48;42.93;100693.31;1749481;81;21508;-41
2021/06/05 09:14:03;;;;;;;8.30;1.20;;;;;;;23.54;43.39;100690.27;1749201;82;21493;-41
2021/06/05 09:16:46;;;;;;;6.28;1.75;;;;;;;23.80;42.77;100691.55;1749126;82;20889;-39
2021/06/05 09:19:21;;;;;;;18.92;1.62;;;;;;;24.07;40.57;100695.36;1748764;82;21796;-41
2021/06/05 09:21:56;;;;;;;5.78;1.32;;;;;;;23.40;41.33;100692.55;1749156;81;20912;-41
2021/06/05 09:24:49;;;;;;;12.45;1.45;;;;;;;23.11;42.67;100692.69;1749100;82;20956;-41
2021/06/05 09:27:23;;;;;;;5.58;0.90;;;;;;;22.94;42.83;100695.14;1749239;82;20971;-41
2021/06/05 09:30:02;;;;;;;6.42;0.80;;;;;;;23.11;43.98;100690.91;1749172;81;21556;-42
2021/06/05 09:32:56;;;;;;;9.80;1.37;;;;;;;23.48;42.87;100680.96;1749217;81;21094;-42
2021/06/05 09:35:29;;;;;;;2.52;0.80;;;;;;;23.27;42.22;100687.27;1749049;82;21015;-42
2021/06/05 09:38:18;;;;;;;4.67;0.95;;;;;;;22.93;43.79;100686.86;1749318;82;21426;-40
2021/06/05 09:41:09;;;;;;;10.45;1.07;;;;;;;22.84;41.75;100691.45;1749278;81;20976;-42
2021/06/05 09:43:37;;;;;;;6.75;0.90;;;;;;;22.43;42.87;100683.96;1749348;81;21500;-40
2021/06/05 09:46:15;;;;;;;1.75;0.85;;;;;;;21.99;44.45;100681.43;1749374;80;21996;-40
2021/06/05 09:48:44;;;;;;;1.45;1.00;;;;;;;22.10;43.84;100671.08;1748268;80;21003;-38
2021/06/05 09:51:31;;;;;;;19.52;1.15;;;;;;;22.16;44.67;100679.53;1749471;82;20925;-40
2021/06/05 09:54:12;;;;;;;8.28;1.40;;;;;;;22.36;45.95;100675.59;1744790;82;20995;-41
2021/06/05 09:56:47;;;;;;;6.00;1.40;;;;;;;22.65;43.14;100671.09;1749561;82;21607;-39
2021/06/05 09:59:32;;;;;;;7.28;1.40;;;;;;;22.66;44.80;100671.92;1749347;81;20944;-40
2021/06/05 10:02:00;;;;;;;4.37;1.20;;;;;;;22.88;44.41;100675.77;1749053;81;20897;-41
2021/06/05 10:04:29;;;;;;;7.40;1.50;;;;;;;23.12;43.69;100673.28;1749365;80;20967;-40
2021/06/05 10:06:58;;;;;;;12.82;1.70;;;;;;;23.10;43.50;100669.42;1749362;81;20987;-38
2021/06/05 10:09:31;;;;;;;10.48;1.30;;;;;;;23.06;43.16;100674.54;1749611;82;21011;-41
2021/06/05 10:12:06;;;;;;;29.92;2.20;;;;;;;22.79;42.78;100671.49;1749362;81;20908;-40
2021/06/05 10:15:14;;;;;;;21.55;2.15;;;;;;;22.35;44.65;100667.31;1749479;81;21050;-41
2021/06/05 10:17:58;;;;;;;;;;;;;;;22.12;45.39;100667.49;1751774;81;20927;-39
2021/06/05 10:20:59;;;;;;;7.67;1.40;;;;;;;21.91;46.55;100661.31;1745597;81;20160;-39
2021/06/05 10:23:37;;;;;;;13.05;1.60;;;;;;;21.78;45.56;100655.98;1714446;82;21215;-42
2021/06/05 10:26:21;;;;;;;16.85;1.70;;;;;;;21.56;46.85;100660.36;1735291;82;21556;-40
2021/06/05 10:28:54;;;;;;;21.50;1.95;;;;;;;21.45;46.87;100655.30;1735206;82;20941;-41
2021/06/05 10:31:23;;;;;;;11.48;1.50;;;;;;;21.32;47.28;100654.34;1735365;82;21015;-40
2021/06/05 10:34:03;;;;;;;5.08;1.30;;;;;;;21.15;48.23;100654.91;1735248;82;21048;-38
2021/06/05 10:36:45;;;;;;;6.45;1.45;;;;;;;21.06;48.42;100659.38;1714750;82;21511;-39
2021/06/05 10:39:15;;;;;;;20.97;2.10;;;;;;;20.95;49.13;100658.70;1735359;82;21231;-39
2021/06/05 10:41:46;;;;;;;16.17;2.45;;;;;;;20.82;49.20;100657.27;1735618;82;21503;-41
2021/06/05 10:44:13;;;;;;;9.68;1.50;;;;;;;20.80;48.57;100649.48;1733212;81;21518;-39
2021/06/05 10:47:12;;;;;;;24.70;2.40;;;;;;;20.68;49.84;100656.72;1735306;81;20909;-39
2021/06/05 10:50:08;;;;;;;27.13;2.10;;;;;;;20.73;50.62;100653.83;1735284;82;20933;-40
2021/06/05 10:52:43;;;;;;;29.42;2.05;;;;;;;21.00;49.60;100650.55;1735182;81;21129;-40
2021/06/05 10:55:20;;;;;;;7.70;1.82;;;;;;;21.34;48.98;100649.83;1735318;82;21498;-40
2021/06/05 10:58:10;;;;;;;22.25;2.72;;;;;;;21.62;47.44;100652.11;1715547;82;21074;-39
2021/06/05 11:00:57;;;;;;;17.57;1.85;;;;;;;21.64;48.66;100659.44;1717830;81;21035;-40
2021/06/05 11:03:33;;;;;;;27.58;2.37;;;;;;;21.62;47.70;100648.98;1735307;82;20961;-41
2021/06/05 11:06:04;;;;;;;14.45;2.42;;;;;;;21.45;48.15;100655.75;1735343;82;21703;-40
2021/06/05 11:08:51;;;;;;;27.67;3.20;;;;;;;21.23;48.00;100663.18;1735564;81;21498;-38
2021/06/05 11:11:34;;;;;;;19.25;2.10;;;;;;;21.02;48.13;100657.42;1735273;82;21015;-40
2021/06/05 11:14:04;;;;;;;39.08;3.52;;;;;;;20.83;48.65;100661.58;1735587;82;21407;-39
2021/06/05 11:17:00;;;;;;;28.65;3.22;;;;;;;20.72;48.94;100654.77;1735312;82;20912;-40
2021/06/05 11:19:47;;;;;;;40.90;3.08;;;;;;;20.65;48.27;100644.61;1727756;82;21020;-38
2021/06/05 11:22:23;;;;;;;36.17;3.27;;;;;;;20.90;48.31;100655.50;1735610;81;21000;-40
2021/06/05 11:25:14;;;;;;;55.65;3.33;;;;;;;21.36;47.03;100641.39;1735204;81;21035;-40
2021/06/05 11:27:47;;;;;;;22.62;2.83;;;;;;;21.44;47.00;100648.80;1735045;82;21035;-42
2021/06/05 11:30:26;;;;;;;29.12;2.40;;;;;;;21.28;47.63;100652.84;1735083;82;21095;-40
2021/06/05 11:33:09;;;;;;;40.20;2.75;;;;;;;20.96;47.52;100654.68;1735484;82;21962;-40
2021/06/05 11:35:54;;;;;;;27.20;2.45;;;;;;;20.70;47.24;100656.64;1735115;82;21017;-40
2021/06/05 11:38:26;;;;;;;17.30;1.80;;;;;;;20.48;49.71;100659.19;1735352;82;20921;-39
2021/06/05 11:41:05;;;;;;;24.95;2.27;;;;;;;20.37;48.96;100650.14;1733043;82;21542;-39